sensor_id;sensor_type;location;lat;lon;timestamp;temperature;humidity
14475;DHT22;7323;50.848;4.334;2023-03-05T00:01:43;7.30;99.90
14475;DHT22;7323;50.848;4.334;2023-03-05T00:04:12;7.10;99.90
14475;DHT22;7323;50.848;4.334;2023-03-05T00:06:39;7.00;99.90
14475;DHT22;7323;50.848;4.334;2023-03-05T00:09:05;7.00;99.90
14475;DHT22;7323;50.848;4.334;2023-03-05T00:11:32;7.10;99.90
14475;DHT22;7323;50.848;4.334;2023-03-05T00:14:00;7.30;99.90
14475;DHT22;7323;50.848;4.334;2023-03-05T00:16:33;7.30;99.90
14475;DHT22;7323;50.848;4.334;2023-03-05T00:19:01;7.30;99.90
14475;DHT22;7323;50.848;4.334;2023-03-05T00:21:34;7.30;99.90
14475;DHT22;7323;50.848;4.334;2023-03-05T00:24:05;7.00;99.90
14475;DHT22;7323;50.848;4.334;2023-03-05T00:26:33;6.90;99.90
14475;DHT22;7323;50.848;4.334;2023-03-05T00:28:59;6.80;99.90
14475;DHT22;7323;50.848;4.334;2023-03-05T00:31:27;6.60;99.90
14475;DHT22;7323;50.848;4.334;2023-03-05T00:34:00;6.80;99.90
14475;DHT22;7323;50.848;4.334;2023-03-05T00:36:30;6.80;99.90
14475;DHT22;7323;50.848;4.334;2023-03-05T00:38:57;6.90;99.90
14475;DHT22;7323;50.848;4.334;2023-03-05T00:41:26;7.00;99.90
14475;DHT22;7323;50.848;4.334;2023-03-05T00:43:52;6.70;99.90
14475;DHT22;7323;50.848;4.334;2023-03-05T00:46:23;6.70;99.90
14475;DHT22;7323;50.848;4.334;2023-03-05T00:48:55;6.60;99.90
14475;DHT22;7323;50.848;4.334;2023-03-05T00:51:21;6.50;99.90
14475;DHT22;7323;50.848;4.334;2023-03-05T00:53:47;6.40;99.90
14475;DHT22;7323;50.848;4.334;2023-03-05T00:56:13;6.40;99.90
14475;DHT22;7323;50.848;4.334;2023-03-05T00:58:38;6.30;99.90
14475;DHT22;7323;50.848;4.334;2023-03-05T01:01:05;6.30;99.90
14475;DHT22;7323;50.848;4.334;2023-03-05T01:03:32;6.30;99.90
14475;DHT22;7323;50.848;4.334;2023-03-05T01:05:59;6.40;99.90
14475;DHT22;7323;50.848;4.334;2023-03-05T01:08:25;6.40;99.90
14475;DHT22;7323;50.848;4.334;2023-03-05T01:10:53;6.40;99.90
14475;DHT22;7323;50.848;4.334;2023-03-05T01:13:19;6.30;99.90
14475;DHT22;7323;50.848;4.334;2023-03-05T01:15:59;6.40;99.90
14475;DHT22;7323;50.848;4.334;2023-03-05T01:18:26;6.40;99.90
14475;DHT22;7323;50.848;4.334;2023-03-05T01:20:52;6.50;99.90
14475;DHT22;7323;50.848;4.334;2023-03-05T01:23:20;6.40;99.90
14475;DHT22;7323;50.848;4.334;2023-03-05T01:25:51;6.40;99.90
14475;DHT22;7323;50.848;4.334;2023-03-05T01:28:17;6.50;99.90
14475;DHT22;7323;50.848;4.334;2023-03-05T01:30:42;6.60;99.90
14475;DHT22;7323;50.848;4.334;2023-03-05T01:33:08;6.40;99.90
14475;DHT22;7323;50.848;4.334;2023-03-05T01:35:33;6.60;99.90
14475;DHT22;7323;50.848;4.334;2023-03-05T01:38:05;6.60;99.90
14475;DHT22;7323;50.848;4.334;2023-03-05T01:40:34;6.60;99.90
14475;DHT22;7323;50.848;4.334;2023-03-05T01:43:28;6.60;99.90
14475;DHT22;7323;50.848;4.334;2023-03-05T01:51:24;6.70;99.90
14475;DHT22;7323;50.848;4.334;2023-03-05T01:53:52;6.70;99.90
14475;DHT22;7323;50.848;4.334;2023-03-05T01:56:19;6.80;99.90
14475;DHT22;7323;50.848;4.334;2023-03-05T01:58:45;6.80;99.90
14475;DHT22;7323;50.848;4.334;2023-03-05T02:01:11;6.70;99.90
14475;DHT22;7323;50.848;4.334;2023-03-05T02:03:38;6.80;99.90
14475;DHT22;7323;50.848;4.334;2023-03-05T02:06:10;6.70;99.90
14475;DHT22;7323;50.848;4.334;2023-03-05T02:08:36;6.70;99.90
14475;DHT22;7323;50.848;4.334;2023-03-05T02:11:03;6.70;99.90
14475;DHT22;7323;50.848;4.334;2023-03-05T02:13:32;6.40;99.90
14475;DHT22;7323;50.848;4.334;2023-03-05T02:16:01;6.50;99.90
14475;DHT22;7323;50.848;4.334;2023-03-05T02:18:30;6.40;99.90
14475;DHT22;7323;50.848;4.334;2023-03-05T02:23:27;6.40;99.90
14475;DHT22;7323;50.848;4.334;2023-03-05T02:25:53;6.20;99.90
14475;DHT22;7323;50.848;4.334;2023-03-05T02:28:33;6.30;99.90
14475;DHT22;7323;50.848;4.334;2023-03-05T02:31:06;6.50;99.90
14475;DHT22;7323;50.848;4.334;2023-03-05T02:33:33;6.50;99.90
14475;DHT22;7323;50.848;4.334;2023-03-05T02:35:59;6.60;99.90
14475;DHT22;7323;50.848;4.334;2023-03-05T02:38:25;6.70;99.90
14475;DHT22;7323;50.848;4.334;2023-03-05T02:40:51;6.80;99.90
14475;DHT22;7323;50.848;4.334;2023-03-05T02:43:16;6.80;99.90
14475;DHT22;7323;50.848;4.334;2023-03-05T02:45:42;6.80;99.90
14475;DHT22;7323;50.848;4.334;2023-03-05T02:48:08;6.80;99.90
14475;DHT22;7323;50.848;4.334;2023-03-05T02:50:33;6.60;99.90
14475;DHT22;7323;50.848;4.334;2023-03-05T02:53:01;6.50;99.90
14475;DHT22;7323;50.848;4.334;2023-03-05T02:55:30;6.40;99.90
14475;DHT22;7323;50.848;4.334;2023-03-05T02:57:56;6.40;99.90
14475;DHT22;7323;50.848;4.334;2023-03-05T03:00:23;6.40;99.90
14475;DHT22;7323;50.848;4.334;2023-03-05T03:02:49;6.40;99.90
14475;DHT22;7323;50.848;4.334;2023-03-05T03:05:17;6.20;99.90
14475;DHT22;7323;50.848;4.334;2023-03-05T03:07:44;6.20;99.90
14475;DHT22;7323;50.848;4.334;2023-03-05T03:10:10;6.20;99.90
14475;DHT22;7323;50.848;4.334;2023-03-05T03:12:38;6.20;99.90
14475;DHT22;7323;50.848;4.334;2023-03-05T03:15:04;6.20;99.90
14475;DHT22;7323;50.848;4.334;2023-03-05T03:17:33;6.10;99.90
14475;DHT22;7323;50.848;4.334;2023-03-05T03:19:59;6.10;99.90
14475;DHT22;7323;50.848;4.334;2023-03-05T03:22:25;6.30;99.90
14475;DHT22;7323;50.848;4.334;2023-03-05T03:24:51;6.40;99.90
14475;DHT22;7323;50.848;4.334;2023-03-05T03:27:16;6.20;99.90
14475;DHT22;7323;50.848;4.334;2023-03-05T03:29:42;6.20;99.90
14475;DHT22;7323;50.848;4.334;2023-03-05T03:32:08;6.40;99.90
14475;DHT22;7323;50.848;4.334;2023-03-05T03:34:33;6.30;99.90
14475;DHT22;7323;50.848;4.334;2023-03-05T03:36:59;6.40;99.90
14475;DHT22;7323;50.848;4.334;2023-03-05T03:39:25;6.50;99.90
14475;DHT22;7323;50.848;4.334;2023-03-05T03:41:54;6.50;99.90
14475;DHT22;7323;50.848;4.334;2023-03-05T03:44:21;6.60;99.90
14475;DHT22;7323;50.848;4.334;2023-03-05T03:46:48;6.60;99.90
14475;DHT22;7323;50.848;4.334;2023-03-05T03:49:20;6.50;99.90
14475;DHT22;7323;50.848;4.334;2023-03-05T03:51:47;6.50;99.90
14475;DHT22;7323;50.848;4.334;2023-03-05T03:54:14;6.70;99.90
14475;DHT22;7323;50.848;4.334;2023-03-05T03:56:40;6.60;99.90
14475;DHT22;7323;50.848;4.334;2023-03-05T03:59:05;6.60;99.90
14475;DHT22;7323;50.848;4.334;2023-03-05T04:01:31;6.50;99.90
14475;DHT22;7323;50.848;4.334;2023-03-05T04:03:57;6.50;99.90
14475;DHT22;7323;50.848;4.334;2023-03-05T04:06:23;6.40;99.90
14475;DHT22;7323;50.848;4.334;2023-03-05T04:08:49;6.40;99.90
14475;DHT22;7323;50.848;4.334;2023-03-05T04:11:15;6.40;99.90
14475;DHT22;7323;50.848;4.334;2023-03-05T04:13:44;6.30;99.90
14475;DHT22;7323;50.848;4.334;2023-03-05T04:16:13;6.30;99.90
14475;DHT22;7323;50.848;4.334;2023-03-05T04:18:40;6.30;99.90
14475;DHT22;7323;50.848;4.334;2023-03-05T04:21:07;6.10;99.90
14475;DHT22;7323;50.848;4.334;2023-03-05T04:23:33;6.00;99.90
14475;DHT22;7323;50.848;4.334;2023-03-05T04:25:59;6.10;99.90
14475;DHT22;7323;50.848;4.334;2023-03-05T04:28:25;6.10;99.90
14475;DHT22;7323;50.848;4.334;2023-03-05T04:30:51;6.10;99.90
14475;DHT22;7323;50.848;4.334;2023-03-05T04:33:17;6.20;99.90
14475;DHT22;7323;50.848;4.334;2023-03-05T04:35:44;6.10;99.90
14475;DHT22;7323;50.848;4.334;2023-03-05T04:38:11;6.10;99.90
14475;DHT22;7323;50.848;4.334;2023-03-05T04:40:40;6.10;99.90
14475;DHT22;7323;50.848;4.334;2023-03-05T04:43:10;6.20;99.90
14475;DHT22;7323;50.848;4.334;2023-03-05T04:45:41;6.20;99.90
14475;DHT22;7323;50.848;4.334;2023-03-05T04:48:11;6.20;99.90
14475;DHT22;7323;50.848;4.334;2023-03-05T04:50:37;6.20;99.90
14475;DHT22;7323;50.848;4.334;2023-03-05T04:53:04;6.20;99.90
14475;DHT22;7323;50.848;4.334;2023-03-05T04:55:33;6.20;99.90
14475;DHT22;7323;50.848;4.334;2023-03-05T04:57:59;6.10;99.90
14475;DHT22;7323;50.848;4.334;2023-03-05T05:00:35;6.00;99.90
14475;DHT22;7323;50.848;4.334;2023-03-05T05:03:02;5.90;99.90
14475;DHT22;7323;50.848;4.334;2023-03-05T05:05:28;5.90;99.90
14475;DHT22;7323;50.848;4.334;2023-03-05T05:07:55;6.00;99.90
14475;DHT22;7323;50.848;4.334;2023-03-05T05:10:20;6.00;99.90
14475;DHT22;7323;50.848;4.334;2023-03-05T05:12:47;6.00;99.90
14475;DHT22;7323;50.848;4.334;2023-03-05T05:15:12;6.10;99.90
14475;DHT22;7323;50.848;4.334;2023-03-05T05:17:38;6.00;99.90
14475;DHT22;7323;50.848;4.334;2023-03-05T05:20:04;6.10;99.90
14475;DHT22;7323;50.848;4.334;2023-03-05T05:22:33;5.90;99.90
14475;DHT22;7323;50.848;4.334;2023-03-05T05:25:00;5.90;99.90
14475;DHT22;7323;50.848;4.334;2023-03-05T05:27:25;5.90;99.90
14475;DHT22;7323;50.848;4.334;2023-03-05T05:29:51;5.90;99.90
14475;DHT22;7323;50.848;4.334;2023-03-05T05:32:18;5.90;99.90
14475;DHT22;7323;50.848;4.334;2023-03-05T05:34:52;5.90;99.90
14475;DHT22;7323;50.848;4.334;2023-03-05T05:37:17;5.80;99.90
14475;DHT22;7323;50.848;4.334;2023-03-05T05:39:43;5.80;99.90
14475;DHT22;7323;50.848;4.334;2023-03-05T05:42:20;5.80;99.90
14475;DHT22;7323;50.848;4.334;2023-03-05T05:44:49;5.90;99.90
14475;DHT22;7323;50.848;4.334;2023-03-05T05:47:17;5.90;99.90
14475;DHT22;7323;50.848;4.334;2023-03-05T05:49:52;6.00;99.90
14475;DHT22;7323;50.848;4.334;2023-03-05T05:52:17;5.90;99.90
14475;DHT22;7323;50.848;4.334;2023-03-05T05:54:43;6.10;99.90
14475;DHT22;7323;50.848;4.334;2023-03-05T05:57:11;5.80;99.90
14475;DHT22;7323;50.848;4.334;2023-03-05T05:59:36;5.90;99.90
14475;DHT22;7323;50.848;4.334;2023-03-05T06:02:03;5.90;99.90
14475;DHT22;7323;50.848;4.334;2023-03-05T06:04:29;5.90;99.90
14475;DHT22;7323;50.848;4.334;2023-03-05T06:06:55;6.00;99.90
14475;DHT22;7323;50.848;4.334;2023-03-05T06:09:21;5.90;99.90
14475;DHT22;7323;50.848;4.334;2023-03-05T06:11:47;6.00;99.90
14475;DHT22;7323;50.848;4.334;2023-03-05T06:14:12;6.10;99.90
14475;DHT22;7323;50.848;4.334;2023-03-05T06:16:39;6.10;99.90
14475;DHT22;7323;50.848;4.334;2023-03-05T06:19:05;6.00;99.90
14475;DHT22;7323;50.848;4.334;2023-03-05T06:21:31;6.00;99.90
14475;DHT22;7323;50.848;4.334;2023-03-05T06:23:57;5.70;99.90
14475;DHT22;7323;50.848;4.334;2023-03-05T06:26:24;5.60;99.90
14475;DHT22;7323;50.848;4.334;2023-03-05T06:28:50;5.60;99.90
14475;DHT22;7323;50.848;4.334;2023-03-05T06:31:18;5.50;99.90
14475;DHT22;7323;50.848;4.334;2023-03-05T06:33:56;5.50;99.90
14475;DHT22;7323;50.848;4.334;2023-03-05T06:36:23;5.60;99.90
14475;DHT22;7323;50.848;4.334;2023-03-05T06:38:50;5.50;99.90
14475;DHT22;7323;50.848;4.334;2023-03-05T06:41:20;5.50;99.90
14475;DHT22;7323;50.848;4.334;2023-03-05T06:43:46;5.50;99.90
14475;DHT22;7323;50.848;4.334;2023-03-05T06:46:15;5.50;99.90
14475;DHT22;7323;50.848;4.334;2023-03-05T06:48:45;5.40;99.90
14475;DHT22;7323;50.848;4.334;2023-03-05T06:51:23;5.40;99.90
14475;DHT22;7323;50.848;4.334;2023-03-05T06:53:50;5.40;99.90
14475;DHT22;7323;50.848;4.334;2023-03-05T06:56:17;5.50;99.90
14475;DHT22;7323;50.848;4.334;2023-03-05T06:58:48;5.50;99.90
14475;DHT22;7323;50.848;4.334;2023-03-05T07:01:14;5.60;99.90
14475;DHT22;7323;50.848;4.334;2023-03-05T07:03:40;5.50;99.90
14475;DHT22;7323;50.848;4.334;2023-03-05T07:06:12;5.60;99.90
14475;DHT22;7323;50.848;4.334;2023-03-05T07:08:45;5.50;99.90
14475;DHT22;7323;50.848;4.334;2023-03-05T07:11:19;5.60;99.90
14475;DHT22;7323;50.848;4.334;2023-03-05T07:13:48;5.60;99.90
14475;DHT22;7323;50.848;4.334;2023-03-05T07:16:19;5.60;99.90
14475;DHT22;7323;50.848;4.334;2023-03-05T07:18:45;5.60;99.90
14475;DHT22;7323;50.848;4.334;2023-03-05T07:21:15;5.60;99.90
14475;DHT22;7323;50.848;4.334;2023-03-05T07:23:44;5.50;99.90
14475;DHT22;7323;50.848;4.334;2023-03-05T07:26:12;5.60;99.90
14475;DHT22;7323;50.848;4.334;2023-03-05T07:28:39;5.60;99.90
14475;DHT22;7323;50.848;4.334;2023-03-05T07:31:15;5.50;99.90
14475;DHT22;7323;50.848;4.334;2023-03-05T07:33:42;5.60;99.90
14475;DHT22;7323;50.848;4.334;2023-03-05T07:36:09;5.70;99.90
14475;DHT22;7323;50.848;4.334;2023-03-05T07:38:36;5.60;99.90
14475;DHT22;7323;50.848;4.334;2023-03-05T07:41:09;5.60;99.90
14475;DHT22;7323;50.848;4.334;2023-03-05T07:43:38;5.50;99.90
14475;DHT22;7323;50.848;4.334;2023-03-05T07:46:12;5.80;99.90
14475;DHT22;7323;50.848;4.334;2023-03-05T07:48:38;5.80;99.90
14475;DHT22;7323;50.848;4.334;2023-03-05T07:51:07;5.80;98.90
14475;DHT22;7323;50.848;4.334;2023-03-05T07:53:34;5.80;98.60
14475;DHT22;7323;50.848;4.334;2023-03-05T07:56:00;5.60;98.30
14475;DHT22;7323;50.848;4.334;2023-03-05T07:58:29;5.70;99.70
14475;DHT22;7323;50.848;4.334;2023-03-05T08:00:55;5.70;99.90
14475;DHT22;7323;50.848;4.334;2023-03-05T08:03:20;5.70;99.90
14475;DHT22;7323;50.848;4.334;2023-03-05T08:05:46;5.70;99.90
14475;DHT22;7323;50.848;4.334;2023-03-05T08:08:12;5.70;98.30
14475;DHT22;7323;50.848;4.334;2023-03-05T08:10:38;5.80;99.10
14475;DHT22;7323;50.848;4.334;2023-03-05T08:13:26;5.80;98.40
14475;DHT22;7323;50.848;4.334;2023-03-05T08:19:19;5.90;96.70
14475;DHT22;7323;50.848;4.334;2023-03-05T08:21:46;6.10;95.90
14475;DHT22;7323;50.848;4.334;2023-03-05T08:24:13;6.00;94.70
14475;DHT22;7323;50.848;4.334;2023-03-05T08:26:41;6.10;94.20
14475;DHT22;7323;50.848;4.334;2023-03-05T08:29:07;6.10;92.50
14475;DHT22;7323;50.848;4.334;2023-03-05T08:31:37;6.00;92.60
14475;DHT22;7323;50.848;4.334;2023-03-05T08:34:05;6.00;93.70
14475;DHT22;7323;50.848;4.334;2023-03-05T08:36:31;6.00;93.80
14475;DHT22;7323;50.848;4.334;2023-03-05T08:38:57;6.20;93.30
14475;DHT22;7323;50.848;4.334;2023-03-05T08:41:24;6.30;91.70
14475;DHT22;7323;50.848;4.334;2023-03-05T08:43:49;6.00;92.10
14475;DHT22;7323;50.848;4.334;2023-03-05T08:46:15;6.10;93.50
14475;DHT22;7323;50.848;4.334;2023-03-05T08:48:42;6.20;93.20
14475;DHT22;7323;50.848;4.334;2023-03-05T08:51:12;6.40;93.80
14475;DHT22;7323;50.848;4.334;2023-03-05T08:53:38;6.40;92.60
14475;DHT22;7323;50.848;4.334;2023-03-05T08:56:09;6.60;92.30
14475;DHT22;7323;50.848;4.334;2023-03-05T08:58:35;6.80;87.90
14475;DHT22;7323;50.848;4.334;2023-03-05T09:01:02;6.90;77.20
14475;DHT22;7323;50.848;4.334;2023-03-05T09:03:28;6.80;73.70
14475;DHT22;7323;50.848;4.334;2023-03-05T09:06:02;6.80;72.60
14475;DHT22;7323;50.848;4.334;2023-03-05T09:08:28;6.80;65.20
14475;DHT22;7323;50.848;4.334;2023-03-05T09:10:56;6.70;65.00
14475;DHT22;7323;50.848;4.334;2023-03-05T09:13:22;6.70;61.20
14475;DHT22;7323;50.848;4.334;2023-03-05T09:15:59;6.60;62.30
14475;DHT22;7323;50.848;4.334;2023-03-05T09:18:26;6.60;62.60
14475;DHT22;7323;50.848;4.334;2023-03-05T09:20:52;6.50;65.80
14475;DHT22;7323;50.848;4.334;2023-03-05T09:23:18;6.40;70.30
14475;DHT22;7323;50.848;4.334;2023-03-05T09:25:44;6.50;73.20
14475;DHT22;7323;50.848;4.334;2023-03-05T09:28:15;6.60;70.00
14475;DHT22;7323;50.848;4.334;2023-03-05T09:30:40;6.70;67.90
14475;DHT22;7323;50.848;4.334;2023-03-05T09:33:06;6.70;64.60
14475;DHT22;7323;50.848;4.334;2023-03-05T09:35:36;6.50;61.00
14475;DHT22;7323;50.848;4.334;2023-03-05T09:38:03;6.50;66.70
14475;DHT22;7323;50.848;4.334;2023-03-05T09:41:01;6.60;64.50
14475;DHT22;7323;50.848;4.334;2023-03-05T09:51:49;6.20;63.50
14475;DHT22;7323;50.848;4.334;2023-03-05T09:54:37;6.10;67.90
14475;DHT22;7323;50.848;4.334;2023-03-05T09:57:05;6.00;75.00
14475;DHT22;7323;50.848;4.334;2023-03-05T09:59:55;5.80;70.30
14475;DHT22;7323;50.848;4.334;2023-03-05T10:02:36;5.90;77.50
14475;DHT22;7323;50.848;4.334;2023-03-05T10:05:25;5.60;80.00
14475;DHT22;7323;50.848;4.334;2023-03-05T10:07:56;5.70;83.80
14475;DHT22;7323;50.848;4.334;2023-03-05T10:10:40;5.80;82.50
14475;DHT22;7323;50.848;4.334;2023-03-05T10:13:21;5.90;83.30
14475;DHT22;7323;50.848;4.334;2023-03-05T10:19:00;5.60;84.60
14475;DHT22;7323;50.848;4.334;2023-03-05T10:24:32;5.30;70.10
14475;DHT22;7323;50.848;4.334;2023-03-05T10:42:22;5.70;57.60
14475;DHT22;7323;50.848;4.334;2023-03-05T10:45:01;5.70;59.70
14475;DHT22;7323;50.848;4.334;2023-03-05T10:50:56;5.90;57.40
14475;DHT22;7323;50.848;4.334;2023-03-05T10:56:06;6.30;51.00
14475;DHT22;7323;50.848;4.334;2023-03-05T10:58:40;6.30;44.90
14475;DHT22;7323;50.848;4.334;2023-03-05T11:04:26;6.30;92.90
14475;DHT22;7323;50.848;4.334;2023-03-05T11:06:54;6.50;99.90
14475;DHT22;7323;50.848;4.334;2023-03-05T11:09:28;6.70;99.90
14475;DHT22;7323;50.848;4.334;2023-03-05T11:14:33;6.90;99.90
14475;DHT22;7323;50.848;4.334;2023-03-05T11:17:02;7.00;99.90
14475;DHT22;7323;50.848;4.334;2023-03-05T11:19:30;7.10;99.90
14475;DHT22;7323;50.848;4.334;2023-03-05T11:22:19;7.20;99.90
14475;DHT22;7323;50.848;4.334;2023-03-05T11:25:15;7.30;14.00
14475;DHT22;7323;50.848;4.334;2023-03-05T11:27:55;7.30;10.10
14475;DHT22;7323;50.848;4.334;2023-03-05T11:30:27;7.40;10.80
14475;DHT22;7323;50.848;4.334;2023-03-05T11:33:08;7.40;9.30
14475;DHT22;7323;50.848;4.334;2023-03-05T11:35:41;7.40;9.10
14475;DHT22;7323;50.848;4.334;2023-03-05T11:38:29;7.20;2.70
14475;DHT22;7323;50.848;4.334;2023-03-05T11:41:01;7.30;7.50
14475;DHT22;7323;50.848;4.334;2023-03-05T11:43:28;7.20;99.90
14475;DHT22;7323;50.848;4.334;2023-03-05T11:46:00;7.20;99.90
14475;DHT22;7323;50.848;4.334;2023-03-05T11:48:31;7.10;99.90
14475;DHT22;7323;50.848;4.334;2023-03-05T11:51:02;7.10;99.90
14475;DHT22;7323;50.848;4.334;2023-03-05T11:53:34;6.90;99.90
14475;DHT22;7323;50.848;4.334;2023-03-05T11:56:23;7.30;99.90
14475;DHT22;7323;50.848;4.334;2023-03-05T11:59:02;7.20;99.90
14475;DHT22;7323;50.848;4.334;2023-03-05T12:01:32;7.20;99.90
14475;DHT22;7323;50.848;4.334;2023-03-05T12:03:59;7.20;99.90
14475;DHT22;7323;50.848;4.334;2023-03-05T12:06:46;7.10;99.90
14475;DHT22;7323;50.848;4.334;2023-03-05T12:09:31;7.20;99.90
14475;DHT22;7323;50.848;4.334;2023-03-05T12:18:47;7.40;99.90
14475;DHT22;7323;50.848;4.334;2023-03-05T12:21:40;7.50;99.90
14475;DHT22;7323;50.848;4.334;2023-03-05T12:24:45;7.30;99.90
14475;DHT22;7323;50.848;4.334;2023-03-05T12:27:34;7.50;99.90
14475;DHT22;7323;50.848;4.334;2023-03-05T12:30:00;7.50;99.90
14475;DHT22;7323;50.848;4.334;2023-03-05T12:40:21;7.20;29.10
14475;DHT22;7323;50.848;4.334;2023-03-05T12:45:28;7.20;17.40
14475;DHT22;7323;50.848;4.334;2023-03-05T12:52:55;6.70;29.90
14475;DHT22;7323;50.848;4.334;2023-03-05T12:55:33;6.70;35.20
14475;DHT22;7323;50.848;4.334;2023-03-05T13:01:00;6.50;25.40
14475;DHT22;7323;50.848;4.334;2023-03-05T13:03:31;6.40;99.90
14475;DHT22;7323;50.848;4.334;2023-03-05T13:05:58;6.40;99.90
14475;DHT22;7323;50.848;4.334;2023-03-05T13:08:29;6.40;99.90
14475;DHT22;7323;50.848;4.334;2023-03-05T13:11:08;6.40;99.90
14475;DHT22;7323;50.848;4.334;2023-03-05T13:13:41;6.30;99.90
14475;DHT22;7323;50.848;4.334;2023-03-05T13:16:28;6.20;99.90
14475;DHT22;7323;50.848;4.334;2023-03-05T13:19:03;6.20;99.90
14475;DHT22;7323;50.848;4.334;2023-03-05T13:21:39;6.40;99.90
14475;DHT22;7323;50.848;4.334;2023-03-05T13:24:18;6.40;99.90
14475;DHT22;7323;50.848;4.334;2023-03-05T13:26:45;6.50;99.90
14475;DHT22;7323;50.848;4.334;2023-03-05T13:29:16;6.50;99.90
14475;DHT22;7323;50.848;4.334;2023-03-05T13:31:47;6.60;99.90
14475;DHT22;7323;50.848;4.334;2023-03-05T13:34:21;6.70;99.90
14475;DHT22;7323;50.848;4.334;2023-03-05T13:37:20;6.80;99.90
14475;DHT22;7323;50.848;4.334;2023-03-05T13:39:46;6.60;99.90
14475;DHT22;7323;50.848;4.334;2023-03-05T13:42:16;6.40;99.90
14475;DHT22;7323;50.848;4.334;2023-03-05T13:44:55;6.30;99.90
14475;DHT22;7323;50.848;4.334;2023-03-05T13:47:23;6.20;99.90
14475;DHT22;7323;50.848;4.334;2023-03-05T13:49:57;6.00;99.90
14475;DHT22;7323;50.848;4.334;2023-03-05T13:52:31;6.00;99.90
14475;DHT22;7323;50.848;4.334;2023-03-05T13:55:02;6.00;99.90
14475;DHT22;7323;50.848;4.334;2023-03-05T13:57:36;5.90;99.90
14475;DHT22;7323;50.848;4.334;2023-03-05T14:00:33;6.00;99.90
14475;DHT22;7323;50.848;4.334;2023-03-05T14:03:22;6.00;99.90
14475;DHT22;7323;50.848;4.334;2023-03-05T14:05:52;6.10;99.90
14475;DHT22;7323;50.848;4.334;2023-03-05T14:08:23;6.20;99.90
14475;DHT22;7323;50.848;4.334;2023-03-05T14:10:52;6.30;99.90
14475;DHT22;7323;50.848;4.334;2023-03-05T14:13:23;6.30;99.90
14475;DHT22;7323;50.848;4.334;2023-03-05T14:16:10;6.20;99.90
14475;DHT22;7323;50.848;4.334;2023-03-05T14:18:53;6.40;99.90
14475;DHT22;7323;50.848;4.334;2023-03-05T14:21:21;6.40;99.90
14475;DHT22;7323;50.848;4.334;2023-03-05T14:23:50;6.50;99.90
14475;DHT22;7323;50.848;4.334;2023-03-05T14:26:31;6.40;99.90
14475;DHT22;7323;50.848;4.334;2023-03-05T14:29:13;6.40;99.90
14475;DHT22;7323;50.848;4.334;2023-03-05T14:31:49;6.30;99.90
14475;DHT22;7323;50.848;4.334;2023-03-05T14:34:40;6.30;99.90
14475;DHT22;7323;50.848;4.334;2023-03-05T14:37:26;6.30;99.90
14475;DHT22;7323;50.848;4.334;2023-03-05T14:39:58;6.40;99.90
14475;DHT22;7323;50.848;4.334;2023-03-05T14:42:30;6.40;99.90
14475;DHT22;7323;50.848;4.334;2023-03-05T14:44:59;6.40;99.90
14475;DHT22;7323;50.848;4.334;2023-03-05T14:47:26;6.50;99.90
14475;DHT22;7323;50.848;4.334;2023-03-05T14:49:52;6.40;99.90
14475;DHT22;7323;50.848;4.334;2023-03-05T14:52:21;6.40;99.90
14475;DHT22;7323;50.848;4.334;2023-03-05T14:54:49;6.30;99.90
14475;DHT22;7323;50.848;4.334;2023-03-05T14:57:20;6.40;99.90
14475;DHT22;7323;50.848;4.334;2023-03-05T14:59:47;6.40;99.90
14475;DHT22;7323;50.848;4.334;2023-03-05T15:02:35;6.60;99.90
14475;DHT22;7323;50.848;4.334;2023-03-05T15:05:13;6.30;99.90
14475;DHT22;7323;50.848;4.334;2023-03-05T15:07:43;6.50;99.90
14475;DHT22;7323;50.848;4.334;2023-03-05T15:10:18;6.60;99.90
14475;DHT22;7323;50.848;4.334;2023-03-05T15:12:50;6.50;99.90
14475;DHT22;7323;50.848;4.334;2023-03-05T15:15:18;6.60;99.90
14475;DHT22;7323;50.848;4.334;2023-03-05T15:17:45;6.80;99.90
14475;DHT22;7323;50.848;4.334;2023-03-05T15:20:21;6.80;99.90
14475;DHT22;7323;50.848;4.334;2023-03-05T15:22:48;6.70;99.90
14475;DHT22;7323;50.848;4.334;2023-03-05T15:25:14;6.70;99.90
14475;DHT22;7323;50.848;4.334;2023-03-05T15:27:40;6.60;99.90
14475;DHT22;7323;50.848;4.334;2023-03-05T15:30:07;6.50;99.90
14475;DHT22;7323;50.848;4.334;2023-03-05T15:32:35;6.40;99.90
14475;DHT22;7323;50.848;4.334;2023-03-05T15:35:01;6.50;99.90
14475;DHT22;7323;50.848;4.334;2023-03-05T15:37:28;6.40;99.90
14475;DHT22;7323;50.848;4.334;2023-03-05T15:39:54;6.50;99.90
14475;DHT22;7323;50.848;4.334;2023-03-05T15:42:20;6.50;99.90
14475;DHT22;7323;50.848;4.334;2023-03-05T15:44:46;6.60;99.90
14475;DHT22;7323;50.848;4.334;2023-03-05T15:47:11;6.70;99.90
14475;DHT22;7323;50.848;4.334;2023-03-05T15:49:37;6.60;99.90
14475;DHT22;7323;50.848;4.334;2023-03-05T15:52:03;6.60;99.90
14475;DHT22;7323;50.848;4.334;2023-03-05T15:54:28;6.70;99.90
14475;DHT22;7323;50.848;4.334;2023-03-05T15:56:54;6.80;99.90
14475;DHT22;7323;50.848;4.334;2023-03-05T15:59:21;6.60;99.90
14475;DHT22;7323;50.848;4.334;2023-03-05T16:01:50;6.70;99.90
14475;DHT22;7323;50.848;4.334;2023-03-05T16:04:17;6.60;99.90
14475;DHT22;7323;50.848;4.334;2023-03-05T16:06:47;6.60;99.90
14475;DHT22;7323;50.848;4.334;2023-03-05T16:09:17;6.70;99.90
14475;DHT22;7323;50.848;4.334;2023-03-05T16:11:45;6.70;99.90
14475;DHT22;7323;50.848;4.334;2023-03-05T16:14:14;6.60;99.90
14475;DHT22;7323;50.848;4.334;2023-03-05T16:16:42;6.60;18.70
14475;DHT22;7323;50.848;4.334;2023-03-05T16:19:09;6.40;22.50
14475;DHT22;7323;50.848;4.334;2023-03-05T16:21:36;6.40;26.10
14475;DHT22;7323;50.848;4.334;2023-03-05T16:24:04;6.50;28.20
14475;DHT22;7323;50.848;4.334;2023-03-05T16:26:33;6.60;28.90
14475;DHT22;7323;50.848;4.334;2023-03-05T16:28:58;6.70;20.40
14475;DHT22;7323;50.848;4.334;2023-03-05T16:31:28;6.70;20.80
14475;DHT22;7323;50.848;4.334;2023-03-05T16:34:00;6.70;23.30
14475;DHT22;7323;50.848;4.334;2023-03-05T16:36:28;6.70;23.70
14475;DHT22;7323;50.848;4.334;2023-03-05T16:38:57;6.60;17.40
14475;DHT22;7323;50.848;4.334;2023-03-05T16:41:23;6.60;19.30
14475;DHT22;7323;50.848;4.334;2023-03-05T16:43:51;6.80;18.80
14475;DHT22;7323;50.848;4.334;2023-03-05T16:46:27;6.70;21.50
14475;DHT22;7323;50.848;4.334;2023-03-05T16:48:54;6.40;27.50
14475;DHT22;7323;50.848;4.334;2023-03-05T16:51:21;6.20;38.50
14475;DHT22;7323;50.848;4.334;2023-03-05T16:53:47;6.00;48.20
14475;DHT22;7323;50.848;4.334;2023-03-05T16:56:14;6.00;52.50
14475;DHT22;7323;50.848;4.334;2023-03-05T16:58:40;6.20;53.70
14475;DHT22;7323;50.848;4.334;2023-03-05T17:01:11;6.40;49.50
14475;DHT22;7323;50.848;4.334;2023-03-05T17:03:38;6.50;45.60
14475;DHT22;7323;50.848;4.334;2023-03-05T17:06:21;6.60;41.80
14475;DHT22;7323;50.848;4.334;2023-03-05T17:08:47;6.50;39.30
14475;DHT22;7323;50.848;4.334;2023-03-05T17:11:13;6.50;37.20
14475;DHT22;7323;50.848;4.334;2023-03-05T17:13:40;6.40;34.70
14475;DHT22;7323;50.848;4.334;2023-03-05T17:16:07;6.50;33.60
14475;DHT22;7323;50.848;4.334;2023-03-05T17:18:33;6.60;25.30
14475;DHT22;7323;50.848;4.334;2023-03-05T17:21:00;6.90;16.20
14475;DHT22;7323;50.848;4.334;2023-03-05T17:23:47;6.70;8.20
14475;DHT22;7323;50.848;4.334;2023-03-05T17:26:16;6.60;10.30
14475;DHT22;7323;50.848;4.334;2023-03-05T17:28:42;6.60;11.20
14475;DHT22;7323;50.848;4.334;2023-03-05T17:31:08;6.40;9.70
14475;DHT22;7323;50.848;4.334;2023-03-05T17:33:36;6.50;11.40
14475;DHT22;7323;50.848;4.334;2023-03-05T17:36:04;6.60;10.30
14475;DHT22;7323;50.848;4.334;2023-03-05T17:38:38;6.60;6.90